Adrian, Missouri
Current Conditions -  °F | °C
As of 8:35 PM on Friday 24 Oct 2014 (Local Time) from KGLY Reporting Station
Haze Haze  
Wind Chill: 20°   Ceiling: Unl
Heat Index: 20°   Visibility: 4mi
Dew Point: 17°   Wind: 7mph
Humidity: 83%   Direction: 210°SSW
Pressure: 30"   Gusts: NA
Location:  38.4°N, 94.35°W
Report Text: KGLY 250135Z AUTO 21006KT 4SM HZ CLR 20/17 A3000 RMK AO2
Loading
Personal Weather Stations






























Interactive Weather Map New forecast layout! Learn more

10-Day Weather Forecast

Advertisements
Track Severe Weather on mobile